Time;durP1;ratioP1;P1;durP2;ratioP2;P2;SDS_P1;SDS_P2;PMS_P1;PMS_P2;Temp;Humidity;BMP_temperature;BMP_pressure;BME280_temperature;BME280_humidity;BME280_pressure;Samples;Min_cycle;Max_cycle;Signal;HPM_P1;HPM_P2
2021/12/25 00:02:26;;;;;;;82.97;44.85;;;7.60;94.40;;;;;;5017117;28;20033;-89
2021/12/25 00:04:52;;;;;;;81.45;44.92;;;7.60;94.30;;;;;;5012243;28;20027;-89
2021/12/25 00:07:17;;;;;;;79.03;43.50;;;7.60;94.30;;;;;;5013418;28;20026;-89
2021/12/25 00:09:43;;;;;;;88.28;45.65;;;7.60;94.40;;;;;;5020821;28;20109;-89
2021/12/25 00:12:09;;;;;;;82.78;44.78;;;7.60;94.40;;;;;;5010083;28;20053;-86
2021/12/25 00:14:35;;;;;;;79.55;43.53;;;7.50;94.50;;;;;;5009365;28;20015;-88
2021/12/25 00:17:01;;;;;;;80.78;44.45;;;7.50;94.50;;;;;;5008777;28;20034;-78
2021/12/25 00:19:26;;;;;;;77.57;42.75;;;7.60;94.60;;;;;;5020423;28;20045;-89
2021/12/25 00:21:52;;;;;;;76.55;42.65;;;7.60;94.60;;;;;;5007570;28;20022;-89
2021/12/25 00:24:18;;;;;;;75.18;41.97;;;7.60;94.60;;;;;;5010124;28;20117;-86
2021/12/25 00:26:53;;;;;;;77.65;42.22;;;7.60;94.60;;;;;;5000985;28;20045;-86
2021/12/25 00:29:35;;;;;;;77.10;41.47;;;7.60;94.70;;;;;;5017710;28;20014;-90
2021/12/25 00:34:36;;;;;;;72.00;40.22;;;7.60;94.60;;;;;;5017892;28;20086;-90
2021/12/25 00:37:04;;;;;;;68.80;39.75;;;7.50;94.60;;;;;;5011910;28;20114;-88
2021/12/25 00:39:30;;;;;;;66.57;38.20;;;7.50;94.60;;;;;;5009486;28;20303;-88
2021/12/25 00:41:57;;;;;;;68.75;38.58;;;7.60;94.60;;;;;;5018794;28;20088;-89
2021/12/25 00:44:23;;;;;;;67.57;39.65;;;7.50;94.50;;;;;;5011772;28;20085;-90
2021/12/25 00:46:49;;;;;;;68.32;37.40;;;7.50;94.60;;;;;;5019976;28;20032;-90
2021/12/25 00:49:15;;;;;;;65.82;37.88;;;7.60;94.60;;;;;;5014686;28;20109;-79
2021/12/25 00:51:40;;;;;;;64.40;36.38;;;7.60;94.70;;;;;;5024735;28;20102;-85
2021/12/25 00:54:06;;;;;;;59.35;35.15;;;7.60;94.70;;;;;;5015034;28;20018;-86
2021/12/25 00:56:32;;;;;;;64.70;36.38;;;7.50;94.70;;;;;;5011116;28;20022;-90
2021/12/25 00:58:57;;;;;;;61.95;36.15;;;7.60;94.80;;;;;;5022428;28;20031;-90
2021/12/25 01:01:23;;;;;;;66.15;37.55;;;7.60;94.80;;;;;;5041150;28;20018;-90
2021/12/25 01:03:49;;;;;;;65.82;37.47;;;7.60;94.80;;;;;;5019405;28;20034;-90
2021/12/25 01:06:15;;;;;;;60.80;35.40;;;7.60;94.80;;;;;;5022070;28;20021;-86
2021/12/25 01:08:41;;;;;;;61.22;35.45;;;7.60;94.80;;;;;;5006415;28;20057;-89
2021/12/25 01:11:07;;;;;;;59.92;34.67;;;7.60;94.80;;;;;;5018243;28;20018;-88
2021/12/25 01:13:38;;;;;;;64.45;35.58;;;7.60;94.70;;;;;;5010649;28;20014;-89
2021/12/25 01:16:56;;;;;;;58.60;34.90;;;7.60;94.70;;;;;;5011029;28;20062;-91
2021/12/25 01:24:41;;;;;;;58.13;36.15;;;7.60;94.80;;;;;;5023225;28;20052;-90
2021/12/25 01:32:32;;;;;;;61.17;34.55;;;7.60;94.70;;;;;;5019079;28;20037;-78
2021/12/25 01:48:04;;;;;;;56.55;34.17;;;7.60;94.70;;;;;;5016245;28;20049;-85
2021/12/25 01:50:30;;;;;;;53.25;33.13;;;7.60;94.80;;;;;;5031894;28;20015;-89
2021/12/25 01:52:57;;;;;;;55.05;34.97;;;7.60;94.80;;;;;;5023387;28;20026;-89
2021/12/25 01:55:28;;;;;;;63.15;35.67;;;7.60;94.80;;;;;;5013691;28;20014;-90
2021/12/25 01:57:55;;;;;;;59.55;34.90;;;7.50;94.70;;;;;;5017937;28;20031;-90
2021/12/25 02:00:47;;;;;;;61.78;37.17;;;7.50;94.80;;;;;;5016356;28;20038;-80
2021/12/25 02:03:16;;;;;;;59.60;35.50;;;7.40;94.90;;;;;;5017247;28;20030;-80
2021/12/25 02:05:42;;;;;;;63.58;36.60;;;7.40;95.00;;;;;;5029984;28;20026;-89
2021/12/25 02:08:08;;;;;;;63.67;37.03;;;7.40;95.00;;;;;;5031660;28;20038;-88
2021/12/25 02:10:34;;;;;;;63.88;35.47;;;7.40;95.10;;;;;;5018873;28;20030;-90
2021/12/25 02:13:02;;;;;;;61.63;36.92;;;7.40;95.10;;;;;;5017476;28;20014;-79
2021/12/25 02:15:28;;;;;;;61.28;36.15;;;7.40;95.20;;;;;;5019662;28;20030;-90
2021/12/25 02:20:42;;;;;;;70.65;37.65;;;7.40;95.20;;;;;;5025161;28;20031;-83
2021/12/25 02:23:18;;;;;;;64.80;36.83;;;7.40;95.30;;;;;;5005961;28;20203;-89
2021/12/25 02:25:44;;;;;;;62.60;35.65;;;7.50;95.30;;;;;;5013572;28;20010;-87
2021/12/25 02:28:12;;;;;;;56.95;34.17;;;7.50;95.30;;;;;;5024331;28;20030;-79
2021/12/25 02:30:39;;;;;;;56.88;35.55;;;7.50;95.30;;;;;;5017703;28;20026;-88
2021/12/25 02:33:04;;;;;;;57.00;32.55;;;7.60;95.30;;;;;;5009124;28;20205;-86
2021/12/25 02:35:30;;;;;;;57.28;34.92;;;7.50;95.30;;;;;;5018337;28;20015;-91
2021/12/25 02:37:56;;;;;;;54.08;32.65;;;7.50;95.30;;;;;;5028070;28;20318;-92
2021/12/25 02:40:22;;;;;;;61.92;36.47;;;7.60;95.30;;;;;;5021923;28;20019;-86
2021/12/25 02:42:48;;;;;;;55.92;34.85;;;7.50;95.30;;;;;;5020174;28;20106;-85
2021/12/25 02:45:18;;;;;;;62.42;35.78;;;7.50;95.30;;;;;;5018200;28;20023;-92
2021/12/25 02:47:49;;;;;;;52.88;34.08;;;7.50;95.30;;;;;;5016526;28;20026;-79
2021/12/25 02:50:26;;;;;;;53.80;34.05;;;7.50;95.30;;;;;;5020798;28;20052;-92
2021/12/25 02:52:52;;;;;;;53.47;32.38;;;7.50;95.30;;;;;;5018450;28;20062;-88
2021/12/25 02:55:18;;;;;;;51.97;32.55;;;7.50;95.30;;;;;;5022449;28;20025;-91
2021/12/25 02:57:49;;;;;;;47.88;30.58;;;7.50;95.20;;;;;;5017936;28;20022;-91
2021/12/25 03:00:42;;;;;;;47.20;31.58;;;7.50;95.30;;;;;;5031058;28;20029;-91
2021/12/25 03:03:08;;;;;;;49.20;29.38;;;7.50;95.30;;;;;;5028426;28;20037;-92
2021/12/25 03:05:34;;;;;;;44.05;29.02;;;7.50;95.30;;;;;;5024003;28;20014;-93
2021/12/25 03:08:00;;;;;;;45.45;28.27;;;7.50;95.30;;;;;;5036752;28;20083;-92
2021/12/25 03:10:26;;;;;;;42.97;27.85;;;7.50;95.30;;;;;;5019617;28;20022;-80
2021/12/25 03:15:46;;;;;;;43.83;27.50;;;7.50;95.40;;;;;;5017258;28;20023;-86
2021/12/25 03:18:18;;;;;;;40.53;27.98;;;7.50;95.30;;;;;;5017283;28;20022;-92
2021/12/25 03:20:46;;;;;;;40.72;27.08;;;7.50;95.30;;;;;;5016897;28;20042;-92
2021/12/25 03:23:17;;;;;;;42.90;27.60;;;7.50;95.40;;;;;;5037976;28;20049;-93
2021/12/25 03:25:44;;;;;;;43.15;27.40;;;7.50;95.40;;;;;;5007887;28;20026;-92
2021/12/25 03:28:10;;;;;;;35.00;23.73;;;7.50;95.40;;;;;;5023039;28;20074;-80
2021/12/25 03:30:39;;;;;;;38.65;25.63;;;7.60;95.40;;;;;;5053527;28;20035;-89
2021/12/25 03:33:10;;;;;;;35.63;23.35;;;7.60;95.40;;;;;;5016969;28;20030;-92
2021/12/25 03:35:37;;;;;;;32.28;22.65;;;7.60;95.30;;;;;;5020596;28;20026;-91
2021/12/25 03:38:04;;;;;;;34.42;22.67;;;7.60;95.40;;;;;;5018850;28;20042;-86
2021/12/25 03:40:30;;;;;;;34.38;24.00;;;7.60;95.40;;;;;;5021964;28;20019;-93
2021/12/25 03:42:56;;;;;;;31.92;23.30;;;7.60;95.30;;;;;;5015364;28;20034;-86
2021/12/25 03:45:22;;;;;;;37.38;25.13;;;7.60;95.30;;;;;;5014742;28;20035;-88
2021/12/25 03:47:50;;;;;;;33.97;23.60;;;7.60;95.30;;;;;;5035779;28;20034;-92
2021/12/25 03:53:09;;;;;;;35.58;23.85;;;7.60;95.30;;;;;;5016625;28;20076;-88
2021/12/25 03:58:26;;;;;;;34.55;22.02;;;7.60;95.20;;;;;;5014087;28;20049;-90
2021/12/25 04:00:59;;;;;;;34.22;23.55;;;7.60;95.20;;;;;;5014713;28;20027;-92
2021/12/25 04:03:42;;;;;;;35.85;24.33;;;7.60;95.20;;;;;;5022256;28;20063;-91
2021/12/25 04:06:10;;;;;;;36.75;24.40;;;7.60;95.10;;;;;;5022808;28;20018;-91
2021/12/25 04:08:42;;;;;;;34.90;23.25;;;7.60;95.10;;;;;;5018980;28;20166;-93
2021/12/25 04:11:15;;;;;;;35.33;24.42;;;7.60;95.10;;;;;;5018943;28;20018;-92
2021/12/25 04:13:41;;;;;;;34.78;24.23;;;7.60;95.10;;;;;;5016702;28;20069;-93
2021/12/25 04:16:07;;;;;;;39.90;26.08;;;7.60;95.10;;;;;;5014647;28;20030;-92
2021/12/25 04:18:32;;;;;;;36.15;24.98;;;7.60;95.10;;;;;;5016755;28;20026;-82
2021/12/25 04:20:58;;;;;;;38.17;23.17;;;7.60;95.10;;;;;;5016380;28;20038;-84
2021/12/25 04:23:27;;;;;;;37.72;23.98;;;7.60;95.10;;;;;;5014144;28;20037;-92
2021/12/25 04:25:58;;;;;;;35.53;24.23;;;7.60;95.10;;;;;;5024476;28;20029;-91
2021/12/25 05:03:53;;;;;;;36.10;22.50;;;7.60;95.10;;;;;;5018170;28;20061;-83
2021/12/25 05:06:22;;;;;;;34.92;22.90;;;7.60;95.00;;;;;;5013304;28;20042;-78
2021/12/25 05:08:49;;;;;;;32.97;22.13;;;7.60;95.00;;;;;;5016122;28;20013;-91
2021/12/25 05:11:15;;;;;;;32.50;22.33;;;7.60;95.00;;;;;;5018394;28;20026;-90
2021/12/25 05:13:42;;;;;;;34.20;23.40;;;7.60;95.00;;;;;;5021589;28;20098;-92
2021/12/25 05:16:07;;;;;;;36.95;25.05;;;7.60;95.00;;;;;;5019814;28;20050;-87
2021/12/25 05:18:33;;;;;;;32.92;22.38;;;7.60;95.00;;;;;;5030684;28;20089;-93
2021/12/25 05:20:59;;;;;;;36.10;24.00;;;7.60;95.00;;;;;;5026829;28;20095;-87
2021/12/25 05:23:25;;;;;;;37.47;20.52;;;7.60;94.90;;;;;;5012954;28;20086;-90
2021/12/25 05:25:50;;;;;;;33.60;21.52;;;7.50;94.90;;;;;;5029290;28;20035;-92
2021/12/25 05:28:24;;;;;;;32.30;22.13;;;7.40;94.90;;;;;;5052807;28;20045;-78
2021/12/25 05:30:50;;;;;;;22.40;16.52;;;7.40;95.00;;;;;;5013902;28;20086;-79
2021/12/25 05:33:16;;;;;;;19.75;14.40;;;7.40;94.90;;;;;;5013240;28;20062;-89
2021/12/25 05:35:41;;;;;;;20.80;13.90;;;7.40;94.80;;;;;;5013526;28;20034;-86
2021/12/25 05:38:13;;;;;;;17.52;12.75;;;7.30;94.70;;;;;;5016811;28;20037;-89
2021/12/25 05:40:39;;;;;;;18.02;13.07;;;7.20;94.70;;;;;;5038985;28;20031;-88
2021/12/25 05:43:05;;;;;;;15.82;10.93;;;7.20;94.70;;;;;;5027655;28;20098;-90
2021/12/25 05:45:31;;;;;;;14.77;10.52;;;7.10;94.70;;;;;;5014604;28;20037;-92
2021/12/25 05:47:57;;;;;;;15.45;10.88;;;7.00;94.50;;;;;;5029605;28;20061;-92
2021/12/25 05:50:23;;;;;;;13.60;9.70;;;7.00;94.50;;;;;;5024969;28;20038;-84
2021/12/25 05:52:49;;;;;;;14.10;10.13;;;7.00;94.50;;;;;;5012473;28;20010;-83
2021/12/25 05:55:15;;;;;;;13.77;9.45;;;7.00;94.40;;;;;;5025310;28;20029;-89
2021/12/25 05:57:41;;;;;;;16.50;10.95;;;7.00;94.40;;;;;;5022844;28;20024;-92
2021/12/25 06:00:09;;;;;;;16.80;11.98;;;6.90;94.20;;;;;;5018441;28;20023;-90
2021/12/25 06:02:35;;;;;;;16.27;11.43;;;6.80;94.10;;;;;;5019261;28;20053;-92
2021/12/25 06:05:03;;;;;;;16.88;12.90;;;6.70;94.00;;;;;;5025017;28;20025;-90
2021/12/25 06:07:29;;;;;;;16.88;12.90;;;6.70;93.90;;;;;;5028381;28;20022;-92
2021/12/25 06:09:54;;;;;;;18.50;13.38;;;6.60;93.80;;;;;;5023083;28;20054;-81
2021/12/25 06:12:20;;;;;;;20.40;14.27;;;6.50;93.70;;;;;;5021418;28;20046;-78
2021/12/25 06:14:47;;;;;;;21.25;14.55;;;6.50;93.90;;;;;;5025444;28;20046;-86
2021/12/25 06:17:13;;;;;;;21.42;15.20;;;6.40;94.00;;;;;;5024573;28;20030;-91
2021/12/25 06:19:40;;;;;;;21.17;15.18;;;6.40;94.00;;;;;;5031095;28;20030;-93
2021/12/25 06:22:06;;;;;;;19.40;14.63;;;6.30;94.20;;;;;;5017753;28;20026;-85
2021/12/25 06:24:32;;;;;;;20.95;15.18;;;6.40;94.30;;;;;;5028840;28;20042;-91
2021/12/25 06:26:57;;;;;;;21.15;15.27;;;6.50;94.30;;;;;;5031049;28;20081;-92
2021/12/25 06:29:23;;;;;;;21.23;15.27;;;6.40;94.20;;;;;;5035935;28;20011;-92
2021/12/25 06:31:50;;;;;;;21.05;15.25;;;6.40;94.20;;;;;;5023404;28;20032;-91
2021/12/25 06:34:16;;;;;;;20.73;15.95;;;6.40;94.00;;;;;;5013724;28;20053;-80
2021/12/25 06:36:42;;;;;;;21.33;15.82;;;6.40;94.00;;;;;;5022181;28;20034;-83
2021/12/25 06:39:13;;;;;;;23.00;16.52;;;6.40;93.90;;;;;;5028293;28;20120;-89
2021/12/25 06:41:39;;;;;;;22.77;17.48;;;6.40;94.00;;;;;;5018152;28;21379;-90
2021/12/25 06:44:05;;;;;;;23.15;17.30;;;6.30;94.00;;;;;;5017837;28;20026;-88
2021/12/25 06:46:30;;;;;;;23.65;17.65;;;6.40;94.00;;;;;;5022821;28;20026;-92
2021/12/25 06:48:56;;;;;;;23.95;17.00;;;6.40;94.00;;;;;;5016414;28;20033;-91
2021/12/25 06:51:23;;;;;;;25.15;18.10;;;6.40;93.90;;;;;;5024503;28;20014;-91
2021/12/25 06:53:48;;;;;;;24.90;17.55;;;6.40;93.90;;;;;;5017107;28;20023;-79
2021/12/25 06:56:14;;;;;;;23.55;17.25;;;6.50;93.80;;;;;;5029537;28;20046;-89
2021/12/25 06:58:40;;;;;;;24.15;17.75;;;6.40;93.70;;;;;;5028792;28;20061;-92
2021/12/25 07:01:05;;;;;;;24.92;17.30;;;6.40;93.70;;;;;;5023320;28;20047;-87
2021/12/25 07:03:31;;;;;;;25.15;18.88;;;6.40;93.60;;;;;;5028097;28;20033;-91
2021/12/25 07:05:57;;;;;;;24.75;18.67;;;6.40;93.50;;;;;;5016404;28;20033;-91
2021/12/25 07:08:23;;;;;;;27.42;19.65;;;6.40;93.50;;;;;;5011108;28;20026;-80
2021/12/25 07:10:49;;;;;;;27.40;19.60;;;6.40;93.50;;;;;;5026890;28;20045;-85
2021/12/25 07:13:19;;;;;;;29.58;21.25;;;6.40;93.60;;;;;;5015281;28;20042;-83
2021/12/25 07:15:46;;;;;;;29.23;20.48;;;6.40;93.50;;;;;;5020436;28;20069;-79
2021/12/25 07:18:12;;;;;;;28.98;20.45;;;6.30;93.50;;;;;;5014109;28;20038;-90
2021/12/25 07:20:38;;;;;;;29.67;19.85;;;6.30;93.50;;;;;;5021984;28;20023;-91
2021/12/25 07:23:03;;;;;;;31.90;21.73;;;6.30;93.40;;;;;;5027136;28;20042;-82
2021/12/25 07:25:30;;;;;;;29.00;21.42;;;6.30;93.50;;;;;;5021927;28;20015;-90
2021/12/25 07:27:56;;;;;;;29.73;20.00;;;6.30;93.40;;;;;;5016760;28;20018;-80
2021/12/25 07:30:22;;;;;;;33.88;20.08;;;6.30;93.30;;;;;;5018290;28;20034;-83
2021/12/25 07:32:47;;;;;;;28.42;19.98;;;6.30;93.30;;;;;;5021505;28;20018;-90
2021/12/25 07:35:13;;;;;;;28.77;19.38;;;6.30;93.30;;;;;;5017602;28;20022;-89
2021/12/25 07:37:39;;;;;;;32.33;20.75;;;6.30;93.20;;;;;;5013047;28;20022;-92
2021/12/25 07:40:06;;;;;;;32.50;21.70;;;6.30;93.30;;;;;;5015764;28;20019;-86
2021/12/25 07:42:32;;;;;;;31.92;21.40;;;6.30;93.30;;;;;;5029703;28;20078;-83
2021/12/25 07:45:03;;;;;;;34.13;23.13;;;6.20;93.20;;;;;;5014338;28;20085;-89
2021/12/25 07:47:31;;;;;;;34.80;22.88;;;6.30;93.10;;;;;;5025901;28;20045;-88
2021/12/25 07:49:58;;;;;;;32.70;22.77;;;6.20;93.20;;;;;;5020789;28;20025;-91
2021/12/25 07:52:25;;;;;;;33.00;23.15;;;6.20;93.20;;;;;;5022229;28;20040;-89
2021/12/25 07:54:51;;;;;;;35.97;23.92;;;6.20;93.30;;;;;;5026208;28;20084;-89
2021/12/25 07:57:17;;;;;;;33.63;22.85;;;6.10;93.20;;;;;;5009755;28;20047;-90
2021/12/25 07:59:42;;;;;;;36.22;23.73;;;6.10;93.10;;;;;;5012531;28;20053;-92
2021/12/25 08:02:08;;;;;;;34.15;23.98;;;6.10;93.20;;;;;;5014510;28;20022;-90
2021/12/25 08:04:34;;;;;;;31.92;21.75;;;6.10;93.20;;;;;;5002583;28;20026;-93
2021/12/25 08:07:00;;;;;;;36.10;23.30;;;6.10;93.20;;;;;;5016640;28;20038;-81
2021/12/25 08:09:29;;;;;;;31.05;20.88;;;6.00;93.10;;;;;;5013787;28;20069;-87
2021/12/25 08:11:57;;;;;;;28.67;20.52;;;6.10;93.10;;;;;;5013425;28;20037;-91
2021/12/25 08:14:25;;;;;;;26.73;18.20;;;5.90;93.20;;;;;;5018747;28;20010;-77
2021/12/25 08:16:55;;;;;;;25.88;16.67;;;6.00;93.20;;;;;;5009411;28;20066;-89
2021/12/25 08:19:21;;;;;;;27.88;18.15;;;6.00;93.20;;;;;;5002616;28;20049;-82
2021/12/25 08:21:47;;;;;;;27.77;18.20;;;5.90;93.00;;;;;;5015582;28;20036;-92
2021/12/25 08:24:13;;;;;;;27.42;18.15;;;5.90;93.00;;;;;;5005616;28;20035;-87
2021/12/25 08:26:39;;;;;;;27.17;18.80;;;5.80;93.00;;;;;;5010861;28;20045;-92
2021/12/25 08:29:05;;;;;;;29.35;18.25;;;5.90;93.10;;;;;;5008360;28;20042;-85
2021/12/25 08:31:30;;;;;;;28.67;19.85;;;5.80;93.10;;;;;;5004597;28;20029;-77
2021/12/25 08:33:56;;;;;;;25.77;18.73;;;5.90;93.20;;;;;;5012782;28;20057;-90
2021/12/25 08:36:22;;;;;;;28.25;19.02;;;5.90;93.30;;;;;;5000461;28;20033;-93
2021/12/25 08:38:47;;;;;;;27.15;19.83;;;5.90;93.20;;;;;;5005327;28;20037;-93
2021/12/25 08:41:13;;;;;;;25.98;17.60;;;5.90;93.10;;;;;;5010243;28;20342;-92
2021/12/25 08:43:46;;;;;;;27.02;18.80;;;5.70;93.00;;;;;;5011773;28;20042;-92
2021/12/25 08:46:18;;;;;;;26.38;17.58;;;5.70;92.90;;;;;;5012030;28;20038;-92
2021/12/25 08:48:44;;;;;;;29.20;18.73;;;5.60;93.00;;;;;;5005696;28;20023;-94
2021/12/25 08:51:10;;;;;;;35.70;22.17;;;5.60;93.10;;;;;;5004233;28;20019;-90
2021/12/25 08:53:36;;;;;;;36.20;20.65;;;5.60;93.20;;;;;;5007299;28;20021;-91
2021/12/25 08:56:02;;;;;;;31.27;19.73;;;5.70;93.30;;;;;;5005953;28;20034;-73
2021/12/25 08:58:31;;;;;;;23.30;15.70;;;5.70;93.10;;;;;;5005635;28;20034;-79
2021/12/25 09:01:01;;;;;;;19.92;13.80;;;5.60;92.70;;;;;;5007860;28;20045;-79
2021/12/25 09:03:29;;;;;;;19.98;13.55;;;5.60;92.40;;;;;;5007019;28;20085;-78
2021/12/25 09:05:56;;;;;;;19.70;13.77;;;5.60;92.50;;;;;;5005799;28;20077;-79
2021/12/25 09:08:23;;;;;;;19.83;13.95;;;5.60;92.30;;;;;;5010745;28;20044;-79
2021/12/25 09:10:48;;;;;;;19.35;13.40;;;5.50;92.20;;;;;;5011601;28;20022;-78
2021/12/25 09:13:14;;;;;;;20.42;12.65;;;5.60;92.40;;;;;;5005670;28;20025;-78
2021/12/25 09:15:40;;;;;;;19.50;12.75;;;5.60;92.40;;;;;;5010676;28;20054;-79
2021/12/25 09:18:06;;;;;;;18.30;12.18;;;5.70;92.20;;;;;;5010373;28;20014;-78
2021/12/25 09:20:31;;;;;;;19.88;14.25;;;5.70;91.80;;;;;;5009845;28;20041;-76
2021/12/25 09:22:57;;;;;;;18.10;12.95;;;5.60;91.60;;;;;;5010655;28;20042;-77
2021/12/25 09:25:24;;;;;;;18.70;12.77;;;5.70;91.90;;;;;;5009776;28;20022;-78
2021/12/25 09:27:50;;;;;;;17.15;12.75;;;5.60;91.50;;;;;;5005449;28;20022;-78
2021/12/25 09:30:16;;;;;;;18.92;13.13;;;5.60;91.30;;;;;;5007750;28;20076;-79
2021/12/25 09:32:42;;;;;;;19.33;12.55;;;5.60;91.40;;;;;;5038629;28;20026;-79
2021/12/25 09:35:08;;;;;;;17.30;13.10;;;5.60;91.40;;;;;;5008176;28;20457;-78
2021/12/25 09:37:34;;;;;;;18.27;12.90;;;5.60;91.40;;;;;;5003336;28;20026;-76
2021/12/25 09:40:00;;;;;;;17.67;12.77;;;5.70;91.30;;;;;;5010422;28;20022;-78
2021/12/25 09:42:26;;;;;;;19.02;13.23;;;5.60;91.00;;;;;;5012334;28;20054;-79
2021/12/25 09:44:53;;;;;;;17.38;13.32;;;5.60;90.90;;;;;;5015293;28;20045;-75
2021/12/25 09:47:19;;;;;;;17.80;12.93;;;5.60;90.70;;;;;;5016868;28;20026;-79
2021/12/25 09:49:45;;;;;;;20.17;14.70;;;5.60;90.70;;;;;;5016133;28;20033;-80
2021/12/25 09:52:11;;;;;;;19.70;14.40;;;5.60;90.50;;;;;;5012635;28;20034;-79
2021/12/25 09:54:37;;;;;;;19.63;14.30;;;5.60;90.40;;;;;;5016864;28;20022;-79
2021/12/25 09:57:03;;;;;;;19.42;14.15;;;5.60;90.30;;;;;;5014714;28;20019;-74
2021/12/25 09:59:29;;;;;;;19.88;15.23;;;5.60;89.70;;;;;;5017222;28;20048;-79
2021/12/25 10:01:57;;;;;;;19.55;14.68;;;5.60;89.90;;;;;;5013438;28;20023;-81
2021/12/25 10:04:42;;;;;;;18.00;14.18;;;5.70;89.80;;;;;;5024854;28;20018;-78
2021/12/25 10:07:29;;;;;;;19.52;15.25;;;5.60;89.10;;;;;;5026803;28;20094;-79
2021/12/25 10:10:14;;;;;;;18.25;14.10;;;5.60;89.30;;;;;;5018136;28;20019;-79
2021/12/25 10:12:43;;;;;;;;;;;5.60;89.40;;;;;;5014087;28;20023;-75
2021/12/25 10:15:22;;;;;;;18.73;14.25;;;5.70;89.30;;;;;;5011268;28;19917;-81
2021/12/25 10:17:53;;;;;;;18.98;15.07;;;5.60;89.00;;;;;;5015836;28;20033;-79
2021/12/25 10:20:28;;;;;;;19.10;15.20;;;5.60;89.00;;;;;;5016662;28;20066;-74
2021/12/25 10:23:01;;;;;;;20.58;16.25;;;5.60;88.80;;;;;;5013868;28;20061;-79
2021/12/25 10:25:32;;;;;;;21.02;16.20;;;5.60;88.80;;;;;;5025442;28;20086;-75
2021/12/25 10:28:06;;;;;;;22.95;17.45;;;5.50;88.90;;;;;;5004007;28;20023;-80
2021/12/25 10:31:02;;;;;;;21.13;17.10;;;5.50;89.10;;;;;;5019626;28;20029;-78
2021/12/25 10:33:31;;;;;;;23.40;17.63;;;5.50;89.00;;;;;;5019340;28;20274;-79
2021/12/25 10:36:10;;;;;;;22.33;17.45;;;5.50;88.90;;;;;;5018982;28;20064;-79
2021/12/25 10:38:36;;;;;;;23.15;18.50;;;5.50;89.10;;;;;;5024155;28;20083;-79
2021/12/25 10:41:13;;;;;;;23.75;19.27;;;5.40;89.20;;;;;;5027017;28;20037;-76
2021/12/25 10:43:42;;;;;;;23.45;18.30;;;5.40;89.40;;;;;;5018763;28;20054;-78
2021/12/25 10:46:09;;;;;;;25.63;19.92;;;5.50;89.20;;;;;;5015683;28;20026;-78
2021/12/25 10:48:34;;;;;;;24.42;18.52;;;5.40;89.20;;;;;;5024679;28;20026;-79
2021/12/25 10:51:00;;;;;;;25.17;18.38;;;5.30;89.10;;;;;;5034473;28;20026;-75
2021/12/25 10:53:29;;;;;;;26.23;19.10;;;4.90;89.80;;;;;;5015478;28;20025;-77
2021/12/25 10:56:09;;;;;;;27.40;19.95;;;4.70;90.90;;;;;;5024053;28;20071;-78
2021/12/25 10:58:35;;;;;;;28.38;20.63;;;4.70;91.60;;;;;;5030113;28;20025;-80
2021/12/25 11:01:01;;;;;;;27.00;20.65;;;4.80;91.70;;;;;;5016557;28;20078;-79
2021/12/25 11:03:30;;;;;;;30.15;21.75;;;4.90;91.70;;;;;;5030182;28;20042;-79
2021/12/25 11:06:01;;;;;;;28.95;21.50;;;4.90;91.50;;;;;;5018976;28;20366;-78
2021/12/25 11:08:27;;;;;;;29.08;22.60;;;4.90;91.30;;;;;;5012738;28;20029;-77
2021/12/25 11:11:16;;;;;;;28.00;21.38;;;4.90;91.40;;;;;;5003793;28;20081;-77
2021/12/25 11:13:51;;;;;;;28.60;22.33;;;4.90;91.40;;;;;;4999781;28;20077;-77
2021/12/25 11:16:27;;;;;;;;;;;5.00;91.30;;;;;;5004609;28;20038;-77
2021/12/25 11:19:10;;;;;;;24.63;19.10;;;4.90;90.60;;;;;;5000730;28;19961;-79
2021/12/25 11:21:44;;;;;;;25.38;19.77;;;4.90;90.50;;;;;;5015384;28;20034;-77
2021/12/25 11:24:38;;;;;;;24.77;20.15;;;5.00;90.60;;;;;;5030082;28;20097;-78
2021/12/25 11:27:07;;;;;;;25.92;20.77;;;5.10;90.30;;;;;;5001139;28;20054;-78
2021/12/25 11:29:36;;;;;;;26.80;21.83;;;5.10;90.00;;;;;;5020001;28;20030;-78
2021/12/25 11:32:04;;;;;;;27.88;22.63;;;5.10;89.90;;;;;;5002915;28;20031;-75
2021/12/25 11:34:30;;;;;;;27.33;22.60;;;5.10;89.70;;;;;;5002153;28;20037;-77
2021/12/25 11:36:58;;;;;;;32.40;25.80;;;5.10;89.60;;;;;;5003933;28;20034;-78
2021/12/25 11:39:25;;;;;;;30.45;24.98;;;5.00;89.50;;;;;;5021681;28;20015;-74
2021/12/25 11:41:56;;;;;;;30.02;23.30;;;4.80;89.20;;;;;;5006561;28;20126;-76
2021/12/25 11:44:43;;;;;;;29.35;22.92;;;4.80;89.40;;;;;;5000784;28;20053;-77
2021/12/25 11:47:33;;;;;;;28.42;22.40;;;4.80;89.40;;;;;;5002978;28;20042;-77
2021/12/25 11:50:02;;;;;;;32.28;25.00;;;4.80;89.70;;;;;;5004879;28;20038;-77
2021/12/25 11:52:37;;;;;;;32.22;24.83;;;4.90;89.70;;;;;;5009463;28;20025;-79
2021/12/25 12:00:58;;;;;;;38.85;27.65;;;5.10;89.20;;;;;;5000749;28;20042;-78
2021/12/25 12:03:38;;;;;;;36.22;25.92;;;5.00;88.70;;;;;;5002379;28;20094;-77
2021/12/25 12:06:05;;;;;;;41.42;28.63;;;5.00;88.60;;;;;;5005025;28;20026;-78
2021/12/25 12:08:53;;;;;;;39.70;29.67;;;5.00;88.70;;;;;;5007683;28;20038;-79
2021/12/25 12:11:28;;;;;;;38.83;30.33;;;5.10;88.60;;;;;;5014383;28;20030;-77
2021/12/25 12:14:27;;;;;;;39.45;30.42;;;5.00;88.70;;;;;;5020030;28;20049;-77
2021/12/25 12:16:59;;;;;;;37.35;28.60;;;5.00;88.60;;;;;;5012388;28;20077;-74
2021/12/25 12:19:34;;;;;;;34.60;27.52;;;5.00;88.80;;;;;;5022604;28;20060;-77
2021/12/25 12:27:57;;;;;;;29.35;23.15;;;5.10;88.50;;;;;;5006979;28;20361;-77
2021/12/25 12:30:31;;;;;;;33.35;24.55;;;5.00;88.20;;;;;;5021971;28;20019;-79
2021/12/25 12:32:59;;;;;;;33.42;25.23;;;5.00;87.70;;;;;;5010573;28;20069;-75
2021/12/25 12:35:33;;;;;;;33.95;25.20;;;4.90;87.90;;;;;;5007190;28;20082;-79
2021/12/25 12:38:37;;;;;;;31.65;24.17;;;4.90;88.00;;;;;;5012423;28;20085;-78
2021/12/25 12:41:21;;;;;;;31.92;24.10;;;5.00;88.10;;;;;;5016343;28;20022;-75
2021/12/25 12:43:59;;;;;;;31.60;24.00;;;5.00;88.20;;;;;;5010917;28;20030;-74
2021/12/25 12:46:50;;;;;;;30.52;23.27;;;4.90;88.30;;;;;;5010537;28;20032;-78
2021/12/25 12:49:21;;;;;;;32.67;24.67;;;4.90;88.10;;;;;;5010408;28;20023;-79
2021/12/25 12:51:49;;;;;;;32.00;23.15;;;4.70;87.60;;;;;;5012790;28;20057;-72
2021/12/25 12:54:40;;;;;;;31.40;23.02;;;4.60;88.10;;;;;;5011670;28;20011;-79
2021/12/25 12:57:06;;;;;;;33.10;23.45;;;4.60;88.40;;;;;;5014649;28;20086;-78
2021/12/25 12:59:43;;;;;;;30.48;21.95;;;4.60;88.30;;;;;;5014230;28;20066;-78
2021/12/25 13:02:10;;;;;;;29.83;21.58;;;4.60;88.50;;;;;;5011323;28;20038;-77
2021/12/25 13:04:45;;;;;;;32.42;24.08;;;4.60;88.00;;;;;;5012429;28;20030;-78
2021/12/25 13:07:13;;;;;;;30.83;22.50;;;4.60;88.40;;;;;;5022758;28;20023;-78
2021/12/25 13:09:45;;;;;;;32.55;23.05;;;4.60;88.30;;;;;;5017578;28;20029;-76
2021/12/25 13:12:23;;;;;;;33.38;23.67;;;4.60;88.10;;;;;;5023405;28;20062;-78
2021/12/25 13:15:04;;;;;;;33.80;24.70;;;4.60;88.30;;;;;;5015798;28;20038;-78
2021/12/25 13:17:30;;;;;;;31.63;23.60;;;4.60;88.30;;;;;;5014074;28;20023;-79
2021/12/25 13:19:56;;;;;;;32.17;23.35;;;4.60;88.40;;;;;;5010466;28;20015;-78
2021/12/25 13:22:22;;;;;;;33.75;24.48;;;4.70;88.60;;;;;;5018523;28;20035;-79
2021/12/25 13:24:54;;;;;;;34.13;24.90;;;4.70;88.20;;;;;;5010486;28;20041;-79
2021/12/25 13:27:20;;;;;;;31.85;24.58;;;4.80;88.20;;;;;;5023013;28;20022;-78
2021/12/25 13:29:46;;;;;;;33.97;26.33;;;4.80;88.00;;;;;;5016660;28;20030;-73
2021/12/25 13:32:12;;;;;;;36.45;26.05;;;4.70;87.90;;;;;;5019739;28;20050;-76
2021/12/25 13:34:39;;;;;;;35.63;26.48;;;4.60;88.10;;;;;;5026748;28;20026;-78
2021/12/25 13:37:13;;;;;;;34.85;25.67;;;4.50;88.20;;;;;;5016355;28;20028;-77
2021/12/25 13:39:41;;;;;;;34.35;25.13;;;4.30;88.40;;;;;;5024826;28;20053;-78
2021/12/25 13:42:10;;;;;;;35.35;25.95;;;4.20;88.60;;;;;;5016970;28;20010;-78
2021/12/25 13:44:39;;;;;;;36.58;26.02;;;4.20;89.00;;;;;;5022921;28;20043;-77
2021/12/25 13:47:14;;;;;;;36.60;25.55;;;4.20;89.20;;;;;;5015153;28;20018;-77
2021/12/25 13:49:47;;;;;;;;;;;4.20;89.30;;;;;;5007757;28;20018;-76
2021/12/25 13:52:23;;;;;;;35.95;25.98;;;4.30;89.20;;;;;;5016317;28;19901;-77
2021/12/25 13:54:55;;;;;;;38.42;26.90;;;4.30;89.00;;;;;;5010533;28;20018;-79
2021/12/25 13:57:23;;;;;;;38.95;27.55;;;4.30;88.80;;;;;;5010354;28;20046;-79
2021/12/25 13:59:51;;;;;;;38.80;29.08;;;4.30;88.90;;;;;;5019656;28;20033;-78
2021/12/25 14:02:17;;;;;;;38.00;28.05;;;4.20;88.60;;;;;;5009676;28;20073;-79
2021/12/25 14:04:46;;;;;;;42.00;29.10;;;4.00;88.30;;;;;;5015232;28;20038;-77
2021/12/25 14:07:16;;;;;;;40.78;28.92;;;3.90;89.00;;;;;;5011299;28;20034;-73
2021/12/25 14:09:56;;;;;;;42.78;29.58;;;3.90;89.00;;;;;;5014448;28;20029;-79
2021/12/25 14:12:23;;;;;;;41.47;28.88;;;3.90;89.30;;;;;;5008890;28;20034;-76
2021/12/25 14:14:50;;;;;;;41.17;28.73;;;4.00;89.50;;;;;;5036467;28;20030;-80